• Join FlightAware (Why Join?)
  • Login
  • US Flag GB Flag 
05:57 EDT


 

Airport Tracker/Info


-or-


 

Live Flight TrackerFlight Track Log ✈ UCA3596 ✈ 17-Oct-2013 ✈ KIAD - KBGM

Flight Track Log - Related Links

Times and Time Zones

All times are in EDT time to prevent confusion due to time zone crossing. See the UCA3596 flight status page for this flight to view local times or setup timezone preferences in your user account.

Time Position Orientation Groundspeed Altitude Reporting Facility
EDT Latitude Longitude Course Direction KTS MPH feet Rate Location/Type
15:27 39.4352 -77.2480 19° North  Level Estimated
15:28 39.5048 -77.2175 19° North  Level Estimated
15:29 39.5744 -77.1869 19° North  Level Estimated
15:30 39.6441 -77.1563 19° North  Level Estimated
15:31 39.7137 -77.1256 19° North  Level Estimated
15:32 39.7833 -77.0948 19° North  Level Estimated
15:33 39.8529 -77.0640 19° North  Level Estimated
15:34 39.9225 -77.0331 19° North  Level Estimated
15:35 39.9921 -77.0022 19° North  Level Estimated
15:36 40.0616 -76.9711 19° North  Level Estimated
15:37 40.1312 -76.9401 19° North  Level Estimated
15:38 40.2008 -76.9089 19° North  Level Estimated
15:39 40.2703 -76.8777 19° North  Level Estimated
15:40 40.3399 -76.8465 19° North  Level Estimated
15:41 40.4094 -76.8151 19° North  Level Estimated
15:42 40.4789 -76.7837 19° North  Level Estimated
15:43 40.5485 -76.7523 19° North  Level Estimated
15:44 40.6180 -76.7207 19° North  Level Estimated
15:45 40.6875 -76.6891 19° North  Level Estimated
15:46 40.7570 -76.6575 19° North  Level Estimated
15:47 40.8264 -76.6257 19° North  Level Estimated
15:48 40.8959 -76.5940 19° North  Level Estimated
15:49 40.9654 -76.5621 19° North  Level Estimated
15:50 41.0349 -76.5302 19° North  Level Estimated
15:51 41.1043 -76.4982 19° North  Level Estimated
15:52 41.1737 -76.4661 19° North  Level Estimated
15:53 41.2432 -76.4340 19° North  Level Estimated
15:54 41.3126 -76.4018 19° North  Level Estimated
15:55 41.3820 -76.3695 19° North  Level Estimated
15:56 41.4514 -76.3372 19° North  Level Estimated
15:57 41.5208 -76.3048 19° North  Level Estimated
15:58 41.5902 -76.2723 19° North  Level Estimated
15:59 41.6596 -76.2397 19° North  Level Estimated
16:00 41.7289 -76.2071 19° North  Level Estimated
16:01 41.7983 -76.1744 19° North  Level Estimated
16:02 41.8676 -76.1417 19° North  Level Estimated
16:03 41.9370 -76.1088 19° North  Level Estimated
16:04 42.0063 -76.0760 19° North  Level Estimated
16:05 42.0756 -76.0430 19° North  Level Estimated
16:06 42.1450 -76.0099 19° North  Level Estimated
16:07 42.2084 -75.9796 19° North  Level Estimated
16:08 42.2084 -75.9796 35° Northeast  Level Estimated
16:09 42.2084 -75.9796 35° Northeast  Level Estimated
16:10 42.2084 -75.9796 35° Northeast  Level Estimated
16:11 42.2084 -75.9796 35° Northeast  Level Estimated
16:12 42.2084 -75.9796 35° Northeast  Level Estimated
16:13 42.2084 -75.9796 35° Northeast  Level Estimated
16:14 42.2084 -75.9796 35° Northeast  Level Estimated
16:15 42.2084 -75.9796 35° Northeast  Level Estimated
16:16 42.2084 -75.9796 35° Northeast  Level Estimated
16:17 42.2084 -75.9796 35° Northeast  Level Estimated
16:18 42.2084 -75.9796 35° Northeast  Level Estimated
16:19 42.2084 -75.9796 35° Northeast  Level Estimated
16:20 42.2084 -75.9796 35° Northeast  Level Estimated
16:21 42.2084 -75.9796 35° Northeast  Level Estimated
16:22 42.2084 -75.9796 35° Northeast  Level Estimated
16:23 42.2084 -75.9796 35° Northeast  Level Estimated